< < Back
Terminal Aerodrome Forecast


Current Version              Previous Versions:   1  2  3  4  5  6  7  8  9  

Terminal Aerodrome Forecast

595
FTUS42 KFFC 202200 AAB
TAFATL
TAF AMD
KATL 202202Z 2022/2124 07008G16KT P6SM SKC
     FM210000 07008KT P6SM SKC
     FM211500 24005KT P6SM SCT250
     FM211800 26008KT P6SM BKN120=

Latest METAR

402
SAUS70 KWBC 210500 RRK
MTRATL
METAR KATL 210452Z 09005KT 10SM FEW250 15/05 A3018 RMK AO2 SLP216
T01500050 402330106 $


USA.gov is the U.S. government's official web portal to all federal, state and local government web resources and services.